Time;durP1;ratioP1;P1;durP2;ratioP2;P2;SDS_P1;SDS_P2;PMS_P1;PMS_P2;Temp;Humidity;BMP_temperature;BMP_pressure;BME280_temperature;BME280_humidity;BME280_pressure;Samples;Min_cycle;Max_cycle;Signal;HPM_P1;HPM_P2
2022/05/25 00:56:36;;;;;;;;;;;;;;;;;;;;;
2022/05/25 01:03:14;;;;;;;;;;;;;;;;;;;;;
2022/05/25 01:16:37;;;;;;;25.20;9.75;;;21.30;99.90;;;;;;4988832;28;20492;-86
2022/05/25 01:26:48;;;;;;;23.75;8.48;;;21.00;99.90;;;;;;5012435;28;20076;-86
2022/05/25 04:40:18;;;;;;;15.05;7.10;;;23.30;99.90;;;;;;4933380;29;20081;-84
2022/05/25 04:47:50;;;;;;;;;;;;;;;;;;;;;
2022/05/25 05:11:28;;;;;;;22.50;6.28;;;34.10;99.90;;;;;;4770021;30;20443;-84
2022/05/25 06:05:36;;;;;;;19.15;4.63;;;40.80;64.40;;;;;;4841427;29;20069;-84
2022/05/25 06:14:40;;;;;;;17.63;4.50;;;41.40;61.60;;;;;;5020902;28;20563;-80
2022/05/25 06:19:50;;;;;;;20.02;5.10;;;42.70;59.00;;;;;;5033848;28;20138;-81
2022/05/25 06:22:18;;;;;;;9.93;3.60;;;43.50;58.10;;;;;;5033973;28;20482;-79
2022/05/25 06:24:47;;;;;;;16.08;3.92;;;44.00;56.40;;;;;;5033532;28;20030;-79
2022/05/25 06:27:24;;;;;;;20.52;4.93;;;44.10;56.00;;;;;;5033832;28;20482;-81
2022/05/25 06:29:56;;;;;;;19.95;4.60;;;44.70;54.30;;;;;;5033804;28;20509;-80
2022/05/25 06:32:23;;;;;;;17.13;3.95;;;45.00;53.50;;;;;;5033063;28;20041;-80
2022/05/25 06:34:50;;;;;;;24.92;4.68;;;45.60;52.00;;;;;;5033371;28;20056;-81
2022/05/25 06:37:22;;;;;;;21.15;4.60;;;45.00;52.00;;;;;;5032443;28;20041;-77
2022/05/25 06:39:48;;;;;;;23.30;5.20;;;44.20;53.20;;;;;;5033304;28;20104;-78
2022/05/25 06:42:13;;;;;;;20.98;4.10;;;43.70;53.60;;;;;;5035556;28;20073;-79
2022/05/25 06:44:42;;;;;;;18.58;4.45;;;44.30;52.90;;;;;;5033834;28;20061;-79
2022/05/25 06:47:08;;;;;;;22.38;4.32;;;44.70;51.80;;;;;;5033455;28;20478;-79
2022/05/25 06:49:34;;;;;;;21.02;4.38;;;44.50;52.20;;;;;;5033697;28;20029;-79
2022/05/25 06:52:00;;;;;;;14.73;3.83;;;44.90;51.50;;;;;;5033397;28;20482;-78
2022/05/25 06:54:26;;;;;;;19.25;4.10;;;45.00;51.00;;;;;;5033328;28;20045;-79
2022/05/25 06:56:57;;;;;;;25.42;4.00;;;45.20;50.50;;;;;;5033073;28;20103;-80
2022/05/25 06:59:23;;;;;;;17.75;4.32;;;44.10;52.00;;;;;;5033384;28;20478;-78
2022/05/25 07:01:48;;;;;;;17.40;4.43;;;44.60;51.20;;;;;;5033474;28;20045;-77
2022/05/25 07:04:14;;;;;;;20.45;4.53;;;41.80;53.30;;;;;;5015535;28;20132;-78
2022/05/25 07:06:40;;;;;;;22.13;5.85;;;36.10;61.80;;;;;;5033031;28;20038;-78
2022/05/25 07:09:07;;;;;;;26.52;5.30;;;34.20;66.50;;;;;;5032807;28;20025;-79
2022/05/25 07:11:33;;;;;;;37.95;5.28;;;32.30;70.70;;;;;;5033208;28;20492;-79
2022/05/25 07:14:00;;;;;;;20.60;6.50;;;31.40;74.80;;;;;;5033202;28;20037;-79
2022/05/25 07:16:26;;;;;;;20.65;5.28;;;31.80;75.30;;;;;;5032998;28;20045;-79
2022/05/25 07:18:52;;;;;;;24.25;4.68;;;33.70;72.40;;;;;;5033137;28;20092;-77
2022/05/25 07:21:30;;;;;;;17.80;4.30;;;36.00;67.50;;;;;;5033065;28;20037;-76
2022/05/25 07:23:58;;;;;;;14.85;4.25;;;38.00;64.70;;;;;;5033150;28;20432;-78
2022/05/25 07:26:25;;;;;;;22.38;4.80;;;39.50;61.60;;;;;;5032286;28;20032;-76
2022/05/25 07:28:52;;;;;;;16.65;4.18;;;41.00;59.60;;;;;;5032930;28;20061;-79
2022/05/25 07:32:02;;;;;;;19.27;4.40;;;41.80;57.90;;;;;;5032967;28;20036;-79
2022/05/25 07:34:37;;;;;;;18.20;4.00;;;41.90;56.90;;;;;;4978453;28;20049;-78
2022/05/25 07:37:12;;;;;;;24.67;4.43;;;39.90;58.80;;;;;;5032531;28;20100;-80
2022/05/25 07:39:55;;;;;;;19.55;5.43;;;38.60;61.70;;;;;;5032911;28;20026;-77
2022/05/25 07:42:35;;;;;;;18.30;4.72;;;39.10;61.00;;;;;;5014966;28;20049;-82
2022/05/25 07:56:22;;;;;;;;;;;;;;;;;;;;;
2022/05/25 09:04:17;;;;;;;;;;;;;;;;;;;;;
2022/05/25 09:21:39;;;;;;;;;;;;;;;;;;;;;
2022/05/25 09:39:46;;;;;;;;;;;;;;;;;;;;;
2022/05/25 09:57:47;;;;;;;25.00;7.28;;;31.70;89.00;;;;;;4959876;28;20241;-85
2022/05/25 11:27:45;;;;;;;21.10;6.82;;;29.50;96.60;;;;;;4902158;29;20028;-75
2022/05/25 11:30:30;;;;;;;34.95;8.25;;;29.50;96.80;;;;;;4933114;29;20047;-76
2022/05/25 11:33:23;;;;;;;26.33;6.40;;;29.50;97.20;;;;;;4950184;28;20041;-77
2022/05/25 11:36:15;;;;;;;34.50;7.45;;;29.30;97.60;;;;;;5019056;28;20029;-75
2022/05/25 11:38:54;;;;;;;22.63;6.78;;;29.10;98.30;;;;;;5030335;28;20041;-76
2022/05/25 11:41:29;;;;;;;28.90;7.25;;;28.80;99.20;;;;;;5031410;28;20509;-75
2022/05/25 11:44:09;;;;;;;24.90;6.90;;;28.60;99.50;;;;;;5017793;28;20041;-76
2022/05/25 11:46:46;;;;;;;33.22;8.80;;;28.50;99.90;;;;;;5032126;28;20490;-75
2022/05/25 11:49:21;;;;;;;37.25;7.97;;;28.20;99.90;;;;;;5032446;28;20501;-76
2022/05/25 11:52:05;;;;;;;33.35;8.80;;;28.00;99.90;;;;;;5032220;28;20052;-75
2022/05/25 11:54:38;;;;;;;33.05;7.10;;;27.80;99.90;;;;;;5031971;28;20037;-78
2022/05/25 11:57:10;;;;;;;38.88;8.40;;;27.60;99.90;;;;;;5032105;28;20032;-77
2022/05/25 12:00:06;;;;;;;33.08;7.53;;;27.40;99.90;;;;;;5031847;28;20041;-76
2022/05/25 12:02:49;;;;;;;33.80;7.78;;;27.30;99.90;;;;;;5032126;28;20041;-77
2022/05/25 12:05:50;;;;;;;37.40;8.88;;;27.30;99.90;;;;;;5031446;28;20116;-77
2022/05/25 12:08:53;;;;;;;46.57;8.57;;;27.40;99.90;;;;;;5014053;28;20032;-82
2022/05/25 12:11:39;;;;;;;35.35;8.23;;;27.50;99.90;;;;;;5029963;28;20153;-81
2022/05/25 12:14:39;;;;;;;29.17;7.78;;;27.70;99.90;;;;;;5032643;28;20053;-80
2022/05/25 12:17:54;;;;;;;30.10;8.40;;;27.90;99.90;;;;;;5034314;28;20117;-78
2022/05/25 12:20:34;;;;;;;45.80;10.38;;;28.10;99.90;;;;;;5033770;28;20080;-77
2022/05/25 12:23:09;;;;;;;32.38;7.22;;;28.30;99.90;;;;;;5020550;28;20064;-77
2022/05/25 12:25:38;;;;;;;32.47;7.78;;;28.40;99.90;;;;;;5035226;28;20025;-80
2022/05/25 12:28:24;;;;;;;34.28;8.32;;;28.60;99.90;;;;;;5035106;28;20053;-80
2022/05/25 12:31:01;;;;;;;25.75;7.47;;;28.70;99.90;;;;;;5035162;28;20029;-82
2022/05/25 12:33:30;;;;;;;31.70;7.43;;;28.70;99.90;;;;;;5034856;28;20034;-80
2022/05/25 12:36:02;;;;;;;29.65;6.68;;;29.00;99.90;;;;;;5034073;28;20102;-81
2022/05/25 12:38:37;;;;;;;41.38;7.82;;;29.20;99.90;;;;;;5031836;28;20111;-79
2022/05/25 12:41:22;;;;;;;28.75;7.32;;;29.40;99.90;;;;;;5031757;28;20481;-80
2022/05/25 12:43:51;;;;;;;26.33;7.22;;;29.60;99.90;;;;;;5032902;28;20040;-77
2022/05/25 12:49:09;;;;;;;33.35;7.40;;;29.60;99.90;;;;;;5033247;28;20102;-78
2022/05/25 12:51:40;;;;;;;20.92;7.35;;;29.40;99.90;;;;;;5030932;28;20045;-80
2022/05/25 12:54:50;;;;;;;39.28;7.85;;;29.10;99.90;;;;;;5034446;28;20053;-79
2022/05/25 12:57:44;;;;;;;36.85;7.97;;;28.70;99.90;;;;;;5031598;28;20116;-79
2022/05/25 13:00:33;;;;;;;30.40;8.25;;;28.30;99.90;;;;;;5030189;28;20112;-77
2022/05/25 13:03:43;;;;;;;31.90;7.40;;;28.00;99.90;;;;;;5033319;28;20041;-77
2022/05/25 13:06:10;;;;;;;32.67;7.85;;;27.80;99.90;;;;;;4967119;28;20446;-79
2022/05/25 13:08:50;;;;;;;31.13;7.03;;;27.90;99.90;;;;;;5015843;28;20171;-79
2022/05/25 13:11:34;;;;;;;34.22;7.47;;;28.00;99.90;;;;;;5033750;28;20029;-79
2022/05/25 13:14:22;;;;;;;37.35;7.60;;;28.10;99.90;;;;;;5016091;28;20382;-79
2022/05/25 13:16:52;;;;;;;31.42;7.88;;;28.40;99.90;;;;;;5033429;28;20030;-79
2022/05/25 13:19:21;;;;;;;27.77;7.47;;;28.60;99.90;;;;;;5034236;28;20036;-78
2022/05/25 13:21:53;;;;;;;29.77;7.43;;;28.80;99.90;;;;;;5034211;28;20128;-77
2022/05/25 13:24:41;;;;;;;29.70;7.40;;;29.00;99.90;;;;;;5033735;28;20026;-77
2022/05/25 13:27:16;;;;;;;26.85;7.63;;;29.20;99.90;;;;;;5033391;28;20048;-78
2022/05/25 13:30:02;;;;;;;38.35;8.82;;;29.30;99.90;;;;;;5013871;28;20021;-79
2022/05/25 13:32:49;;;;;;;23.50;7.55;;;29.40;99.90;;;;;;5031299;28;20057;-78
2022/05/25 13:35:27;;;;;;;23.60;6.45;;;29.40;99.90;;;;;;5030959;28;20079;-79
2022/05/25 13:38:57;;;;;;;26.50;6.63;;;29.40;99.90;;;;;;5030187;28;20525;-79
2022/05/25 13:41:34;;;;;;;34.88;7.20;;;29.40;99.90;;;;;;4997133;28;20049;-80
2022/05/25 13:44:45;;;;;;;;;;;;;;;;;;;;;
2022/05/25 13:47:28;;;;;;;34.03;7.70;;;29.50;99.90;;;;;;5004237;28;20025;-79
2022/05/25 13:50:36;;;;;;;42.30;8.23;;;29.30;99.90;;;;;;5032554;28;20076;-81
2022/05/25 13:53:36;;;;;;;33.92;7.60;;;29.00;99.90;;;;;;5022080;28;20120;-80
2022/05/25 13:56:19;;;;;;;29.27;7.60;;;28.80;99.90;;;;;;5031905;28;20033;-80
2022/05/25 13:59:28;;;;;;;31.30;8.20;;;28.50;99.90;;;;;;5030647;28;20072;-79
2022/05/25 14:02:38;;;;;;;35.05;8.88;;;28.30;99.90;;;;;;5014303;28;20132;-80
2022/05/25 14:05:16;;;;;;;35.15;8.57;;;28.20;99.90;;;;;;5031519;28;20075;-79
2022/05/25 14:07:46;;;;;;;33.90;8.30;;;28.40;99.90;;;;;;5031827;28;20036;-80
2022/05/25 14:13:52;;;;;;;35.58;8.10;;;28.60;99.90;;;;;;5032640;28;20506;-80
2022/05/25 14:16:23;;;;;;;28.08;8.63;;;28.60;99.90;;;;;;5022622;28;20391;-78
2022/05/25 14:18:57;;;;;;;39.10;7.35;;;28.50;99.90;;;;;;5032038;28;20021;-79
2022/05/25 14:21:50;;;;;;;43.22;7.97;;;28.40;99.90;;;;;;5031019;28;20045;-77
2022/05/25 14:24:35;;;;;;;34.80;8.48;;;28.30;99.90;;;;;;5030174;28;20038;-77
2022/05/25 14:27:30;;;;;;;30.60;7.65;;;28.20;99.90;;;;;;5013301;28;20363;-79
2022/05/25 14:30:05;;;;;;;37.35;8.48;;;28.00;99.90;;;;;;5032785;28;20087;-78
2022/05/25 14:32:34;;;;;;;32.33;7.03;;;27.90;99.90;;;;;;5032282;28;20829;-75
2022/05/25 14:35:05;;;;;;;35.78;7.95;;;27.80;99.90;;;;;;5032124;28;20041;-76
2022/05/25 14:37:35;;;;;;;36.17;8.45;;;27.80;99.90;;;;;;5031824;28;20037;-76
2022/05/25 14:40:05;;;;;;;40.65;8.85;;;27.80;99.90;;;;;;5032274;28;20034;-75
2022/05/25 14:42:48;;;;;;;40.90;8.48;;;27.80;99.90;;;;;;5032234;28;20540;-78
2022/05/25 14:45:15;;;;;;;29.95;8.00;;;27.90;99.90;;;;;;5006526;28;20421;-78
2022/05/25 14:47:48;;;;;;;37.35;6.55;;;28.00;99.90;;;;;;5031797;28;20036;-77
2022/05/25 14:50:21;;;;;;;37.85;7.50;;;28.00;99.90;;;;;;5028886;28;20117;-77
2022/05/25 14:52:58;;;;;;;42.42;8.57;;;28.10;99.90;;;;;;5032202;28;20033;-78
2022/05/25 14:55:47;;;;;;;31.65;8.27;;;28.10;99.90;;;;;;5030454;28;20033;-77
2022/05/25 14:58:32;;;;;;;38.25;10.15;;;28.10;99.90;;;;;;5017226;28;20068;-78
2022/05/25 15:01:10;;;;;;;42.80;8.57;;;28.10;99.90;;;;;;5030741;28;20045;-78
2022/05/25 15:03:50;;;;;;;36.88;8.10;;;28.20;99.90;;;;;;5030884;28;20121;-78
2022/05/25 15:06:17;;;;;;;36.03;8.15;;;28.10;99.90;;;;;;5030539;28;20029;-78
2022/05/25 15:08:52;;;;;;;33.80;8.63;;;28.00;99.90;;;;;;5013712;28;20377;-78
2022/05/25 15:11:36;;;;;;;36.17;8.13;;;28.00;99.90;;;;;;5030518;28;20030;-79
2022/05/25 15:20:23;;;;;;;41.72;8.57;;;27.70;99.90;;;;;;5030133;28;20045;-77
2022/05/25 15:23:01;;;;;;;28.75;7.63;;;27.60;99.90;;;;;;5030453;28;20042;-76
2022/05/25 15:25:38;;;;;;;37.33;9.25;;;27.50;99.90;;;;;;5030659;28;20036;-78
2022/05/25 15:28:10;;;;;;;41.55;8.15;;;27.40;99.90;;;;;;5030733;28;20037;-79
2022/05/25 15:31:00;;;;;;;27.35;8.07;;;27.30;99.90;;;;;;5030856;28;20065;-76
2022/05/25 15:33:29;;;;;;;41.40;7.93;;;27.30;99.90;;;;;;5029899;28;21456;-81
2022/05/25 15:36:22;;;;;;;40.88;7.82;;;27.30;99.90;;;;;;5030185;28;20040;-80
2022/05/25 15:38:50;;;;;;;36.15;8.63;;;27.20;99.90;;;;;;5030814;28;20069;-78
2022/05/25 15:41:16;;;;;;;28.38;8.23;;;27.10;99.90;;;;;;5030757;28;20065;-79
2022/05/25 15:43:42;;;;;;;28.55;9.45;;;27.10;99.90;;;;;;5030453;28;20431;-79
2022/05/25 15:46:11;;;;;;;37.50;8.23;;;27.00;99.90;;;;;;5030011;28;20104;-79
2022/05/25 15:48:39;;;;;;;35.40;9.00;;;26.90;99.90;;;;;;5029646;28;20083;-81
2022/05/25 15:51:13;;;;;;;36.65;7.97;;;26.80;99.90;;;;;;5029824;28;20033;-79
2022/05/25 15:53:40;;;;;;;37.35;8.45;;;26.80;99.90;;;;;;5029516;28;20025;-78
2022/05/25 15:56:06;;;;;;;30.30;8.77;;;26.70;99.90;;;;;;5029922;28;20017;-76
2022/05/25 15:58:33;;;;;;;72.05;10.02;;;26.70;99.90;;;;;;5030475;28;20045;-76
2022/05/25 16:00:59;;;;;;;47.78;8.60;;;26.80;99.90;;;;;;5031029;28;20459;-77
2022/05/25 16:03:32;;;;;;;39.97;9.45;;;26.80;99.90;;;;;;5031227;28;20092;-77
2022/05/25 16:05:59;;;;;;;38.13;9.48;;;26.60;99.90;;;;;;5030626;28;20029;-76
2022/05/25 16:11:13;;;;;;;45.22;8.45;;;26.50;99.90;;;;;;5029883;28;20103;-78
2022/05/25 16:13:39;;;;;;;35.67;7.78;;;26.50;99.90;;;;;;5029688;28;20038;-77
2022/05/25 16:16:05;;;;;;;28.00;7.97;;;26.50;99.90;;;;;;5030855;28;20033;-74
2022/05/25 16:18:31;;;;;;;43.03;8.93;;;26.50;99.90;;;;;;5031136;28;20496;-75
2022/05/25 16:20:56;;;;;;;35.00;9.27;;;26.50;99.90;;;;;;5029554;28;20037;-77
2022/05/25 16:23:22;;;;;;;37.38;9.27;;;26.40;99.90;;;;;;5030191;28;20914;-75
2022/05/25 16:25:48;;;;;;;29.95;8.35;;;26.40;99.90;;;;;;5030111;28;20105;-77
2022/05/25 16:28:14;;;;;;;31.67;8.35;;;26.40;99.90;;;;;;5030449;28;20037;-77
2022/05/25 16:30:40;;;;;;;39.58;9.00;;;26.30;99.90;;;;;;5029940;28;20658;-77
2022/05/25 16:33:06;;;;;;;31.02;8.45;;;26.20;99.90;;;;;;5029880;28;20358;-77
2022/05/25 16:35:32;;;;;;;47.92;9.85;;;26.10;99.90;;;;;;5029620;28;20045;-77
2022/05/25 16:37:58;;;;;;;33.33;8.85;;;26.10;99.90;;;;;;5029835;28;20046;-77
2022/05/25 16:40:24;;;;;;;33.58;9.25;;;26.20;99.90;;;;;;5028864;28;20032;-77
2022/05/25 16:42:51;;;;;;;37.58;9.13;;;26.10;99.90;;;;;;5028851;28;20497;-75
2022/05/25 16:45:17;;;;;;;37.88;9.32;;;26.00;99.90;;;;;;5029673;28;20037;-77
2022/05/25 16:47:42;;;;;;;45.30;9.45;;;25.90;99.90;;;;;;5013159;28;20030;-77
2022/05/25 16:50:09;;;;;;;30.95;10.20;;;25.80;99.90;;;;;;5030487;28;20478;-77
2022/05/25 16:52:36;;;;;;;33.45;8.25;;;25.70;99.90;;;;;;5030176;28;20037;-76
2022/05/25 16:55:03;;;;;;;36.38;9.45;;;25.70;99.90;;;;;;5029799;28;20037;-76
2022/05/25 16:57:30;;;;;;;30.38;9.70;;;25.60;99.90;;;;;;5028729;28;20033;-78
2022/05/25 16:59:56;;;;;;;41.00;9.43;;;25.60;99.90;;;;;;5030806;28;20756;-78
2022/05/25 17:02:22;;;;;;;34.55;8.70;;;25.60;99.90;;;;;;5033678;28;20418;-76
2022/05/25 17:04:48;;;;;;;37.33;9.60;;;25.60;99.90;;;;;;5032029;28;20036;-79
2022/05/25 17:07:14;;;;;;;42.63;8.57;;;25.60;99.90;;;;;;5033265;28;20037;-76
2022/05/25 17:09:40;;;;;;;34.35;8.60;;;25.60;99.90;;;;;;5032606;28;20025;-78
2022/05/25 17:12:06;;;;;;;34.50;9.88;;;25.50;99.90;;;;;;5033520;28;20397;-78
2022/05/25 17:14:32;;;;;;;37.45;9.65;;;25.50;99.90;;;;;;5033087;28;20029;-78
2022/05/25 17:16:57;;;;;;;30.52;9.25;;;25.50;99.90;;;;;;5033794;28;20096;-80
2022/05/25 17:22:09;;;;;;;38.00;9.75;;;25.40;99.90;;;;;;5033895;28;20076;-78
2022/05/25 17:24:36;;;;;;;44.10;10.75;;;25.40;99.90;;;;;;5032887;28;20037;-78
2022/05/25 17:27:02;;;;;;;32.85;8.80;;;25.40;99.90;;;;;;5033979;28;20035;-79
2022/05/25 17:29:28;;;;;;;40.08;8.77;;;25.50;99.90;;;;;;5016460;28;20030;-80
2022/05/25 17:31:54;;;;;;;39.05;9.30;;;25.50;99.90;;;;;;5034144;28;20033;-79
2022/05/25 17:34:22;;;;;;;32.60;8.07;;;25.60;99.90;;;;;;5033742;28;20030;-78
2022/05/25 17:42:17;;;;;;;41.13;9.88;;;25.60;99.90;;;;;;5033852;28;20133;-78
2022/05/25 17:44:43;;;;;;;41.60;9.32;;;25.60;99.90;;;;;;5034211;28;20053;-79
2022/05/25 17:47:09;;;;;;;28.67;9.10;;;25.60;99.90;;;;;;5039175;28;20040;-81
2022/05/25 17:49:59;;;;;;;43.58;9.55;;;25.60;99.90;;;;;;5032788;28;20033;-82
2022/05/25 17:52:26;;;;;;;34.65;8.88;;;25.60;99.90;;;;;;5019805;28;20506;-79
2022/05/25 17:54:53;;;;;;;44.67;8.50;;;25.60;99.90;;;;;;5034068;28;20107;-79
2022/05/25 17:57:18;;;;;;;35.80;8.50;;;25.40;99.90;;;;;;5032852;28;20037;-79
2022/05/25 17:59:45;;;;;;;38.80;9.57;;;25.40;99.90;;;;;;5033424;28;20029;-80
2022/05/25 18:02:12;;;;;;;39.05;8.43;;;25.40;99.90;;;;;;5032789;28;20045;-79
2022/05/25 18:04:41;;;;;;;28.02;8.75;;;25.30;99.90;;;;;;5033022;28;20458;-83
2022/05/25 18:07:14;;;;;;;44.80;10.18;;;25.20;99.90;;;;;;5033159;28;20501;-83
2022/05/25 18:09:43;;;;;;;49.83;10.70;;;25.10;99.90;;;;;;5033971;28;20032;-83
2022/05/25 18:12:13;;;;;;;34.35;9.27;;;25.10;99.90;;;;;;5033349;28;20040;-82
2022/05/25 18:14:51;;;;;;;29.20;8.60;;;25.10;99.90;;;;;;5033600;28;20033;-80
2022/05/25 18:17:31;;;;;;;35.13;8.88;;;24.90;99.90;;;;;;5030833;28;20033;-84
2022/05/25 18:20:22;;;;;;;39.88;8.82;;;24.90;99.90;;;;;;5033717;28;20363;-82
2022/05/25 18:22:54;;;;;;;33.47;8.88;;;24.90;99.90;;;;;;5033239;28;20046;-83
2022/05/25 18:25:25;;;;;;;40.92;9.30;;;24.90;99.90;;;;;;5033344;28;20037;-82
2022/05/25 18:27:51;;;;;;;33.80;9.27;;;24.80;99.90;;;;;;5033135;28;20033;-87
2022/05/25 18:30:17;;;;;;;62.10;10.05;;;24.80;99.90;;;;;;5015521;28;20033;-83
2022/05/25 18:32:43;;;;;;;35.10;9.80;;;24.70;99.90;;;;;;5032832;28;20033;-83
2022/05/25 18:35:10;;;;;;;33.67;9.18;;;24.70;99.90;;;;;;5034233;28;20045;-85
2022/05/25 18:37:43;;;;;;;47.22;10.25;;;24.60;99.90;;;;;;5016094;28;20513;-85
2022/05/25 18:40:10;;;;;;;45.35;12.30;;;24.60;99.90;;;;;;5016182;28;20041;-84
2022/05/25 18:42:36;;;;;;;44.00;9.38;;;24.60;99.90;;;;;;5034971;28;20042;-94
2022/05/25 18:45:03;;;;;;;39.28;10.23;;;24.50;99.90;;;;;;5034909;28;20092;-86
2022/05/25 18:47:29;;;;;;;39.58;10.25;;;24.50;99.90;;;;;;5032366;28;20037;-80
2022/05/25 18:49:55;;;;;;;34.92;9.32;;;24.50;99.90;;;;;;5032412;28;20034;-80
2022/05/25 18:52:21;;;;;;;34.83;10.05;;;24.50;99.90;;;;;;5032793;28;20103;-79
2022/05/25 18:54:56;;;;;;;34.10;9.38;;;24.40;99.90;;;;;;5033546;28;20047;-82
2022/05/25 18:57:25;;;;;;;36.05;9.93;;;24.40;99.90;;;;;;5014968;28;20034;-90
2022/05/25 18:59:50;;;;;;;39.25;10.45;;;24.40;99.90;;;;;;5017033;28;20029;-83
2022/05/25 19:02:16;;;;;;;38.08;9.65;;;24.40;99.90;;;;;;5032658;28;20453;-82
2022/05/25 19:04:42;;;;;;;36.33;10.05;;;24.30;99.90;;;;;;5032439;28;20477;-77
2022/05/25 19:07:08;;;;;;;34.78;9.27;;;24.30;99.90;;;;;;5015364;28;20040;-81
2022/05/25 19:09:34;;;;;;;35.58;9.85;;;24.30;99.90;;;;;;5032774;28;20047;-80
2022/05/25 19:12:01;;;;;;;39.85;9.60;;;24.30;99.90;;;;;;5032330;28;20505;-79
2022/05/25 19:14:27;;;;;;;46.45;10.18;;;24.30;99.90;;;;;;5032809;28;20041;-77
2022/05/25 19:16:53;;;;;;;38.17;9.07;;;24.30;99.90;;;;;;5032130;28;20832;-78
2022/05/25 19:19:32;;;;;;;35.78;9.30;;;24.30;99.90;;;;;;5033111;28;20029;-80
2022/05/25 19:22:05;;;;;;;40.88;9.85;;;24.30;99.90;;;;;;5032209;28;20037;-80
2022/05/25 19:24:31;;;;;;;33.42;10.13;;;24.30;99.90;;;;;;5032021;28;20021;-78
2022/05/25 19:27:02;;;;;;;29.33;9.38;;;24.30;99.90;;;;;;5031731;28;20025;-80
2022/05/25 19:29:30;;;;;;;36.38;10.35;;;24.30;99.90;;;;;;5031122;28;20021;-79
2022/05/25 19:32:01;;;;;;;37.33;9.50;;;24.30;99.90;;;;;;5031444;28;20030;-80
2022/05/25 19:34:28;;;;;;;38.83;10.05;;;24.30;99.90;;;;;;5031841;28;20025;-79
2022/05/25 19:36:56;;;;;;;50.10;11.00;;;24.30;99.90;;;;;;5031601;28;20044;-78
2022/05/25 19:39:28;;;;;;;44.13;11.75;;;24.20;99.90;;;;;;5031964;28;20037;-78
2022/05/25 19:41:57;;;;;;;35.45;10.05;;;24.20;99.90;;;;;;5031852;28;20033;-79
2022/05/25 19:44:27;;;;;;;38.33;11.10;;;24.10;99.90;;;;;;5031868;28;20048;-78
2022/05/25 19:46:54;;;;;;;28.90;9.70;;;24.10;99.90;;;;;;5031548;28;20039;-78
2022/05/25 20:29:33;;;;;;;;;;;;;;;;;;;;;
2022/05/25 21:34:06;;;;;;;35.13;10.68;;;22.30;99.90;;;;;;4947340;29;20575;-83
2022/05/25 21:41:14;;;;;;;;;;;;;;;;;;;;;
2022/05/25 22:46:48;;;;;;;;;;;;;;;;;;;;;
2022/05/25 22:56:19;;;;;;;28.70;8.23;;;21.90;99.90;;;;;;4733113;30;20415;-82
2022/05/25 23:27:12;;;;;;;25.73;7.60;;;21.90;99.90;;;;;;4933197;29;20042;-81
